** WELKOM OP ONZE WEBSITE MET ACTUELE WEERDATA VANUIT IZEGEM **
Het weer levert geen direct gevaar op.    Er zijn geen waarschuwingen afgegeven.

Weercam te Izegem Meer informatie Weercam te Izegem


Lokaal brand risico:
FWI


Regionaal brand risico: Meer informatie


Steun ons initiatief via een kleine donatie!



METAR rapporten vliegvelden

   
EBOS - Oostende Airport, Belgium
Afstand tot: NW 39 km
Gewijzigd: 21-09-2019 12:20
Helder  
Helder  
   Wind: ZO 20.4 km/h
Wind: ZO 20.4 km/h
Temperatuur: 19°C
Dauwpunt: 6°C
Vochtigheid: 43%
Barometer: 1016 hPa
Zicht: meer dan 10 km
Bewolking: Helder ft
EBOS 211020Z 13011KT CAVOK 19/06 Q1016 NOSIG
LFQQ - Lille/Lesquin, France
Afstand tot: Z 40 km
Gewijzigd: 21-09-2019 12:00
Helder  
Helder  
   Wind: ZO 16.7 km/h
Wind: ZO 16.7 km/h
Temperatuur: 20°C
Dauwpunt: 6°C
Vochtigheid: 40%
Barometer: 1015 hPa
Zicht: meer dan 10 km
Bewolking: Helder ft
LFQQ 211000Z AUTO 13009KT 090V170 CAVOK 20/06 Q1015 NOSIG
EBFN - Koksijde (bel-Af, Belgium
Afstand tot: WNW 43 km
Gewijzigd: 21-09-2019 11:55
Helder  
Helder  
   Wind: ZO 16.7 km/h
Wind: ZO 16.7 km/h
Temperatuur: 18°C
Dauwpunt: 5°C
Vochtigheid: 43%
Barometer: 1015 hPa
Bewolking: Clear
Zicht: meer dan 10 km
Bewolking: Helder ft
EBFN 210955Z AUTO 13009KT 9999 NCD 18/05 Q1015 BLU
EBCV - Chievres Ab, Belgium
Afstand tot: ZO 59 km
Gewijzigd: 21-09-2019 11:55
Helder  
Helder  
   Wind: ZO 13 km/h
Wind: ZO 13 km/h
Temperatuur: 20°C
Dauwpunt: 6°C
Vochtigheid: 40%
Barometer: 1016 hPa
Bewolking: Clear
Zicht: meer dan 10 km
Bewolking: Helder ft
EBCV 210955Z AUTO 13007KT 9999 NCD 20/06 Q1016 BLU
EHFS - Vlissingen, Netherlands
Afstand tot: NNO 65 km
Gewijzigd: 21-09-2019 11:55
Helder  
Helder  
   Wind: OZO 29.6 km/h
Wind: OZO 29.6 km/h
Temperatuur: 17°C
Dauwpunt: 7°C
Vochtigheid: 52%
Barometer: 1016 hPa
Bewolking: Clear
Zicht: meer dan 10 km
Bewolking: Helder ft
EHFS 210955Z AUTO 12016KT 090V150 9999 NCD 17/07 Q1016 W///H///
EBBR - Brussels Nationa, Belgium
Afstand tot: O 91 km
Gewijzigd: 21-09-2019 12:20
Helder  
Helder  
   Wind: Oosten 11.1 km/h
Wind: Oosten 11.1 km/h
Temperatuur: 19°C
Dauwpunt: 5°C
Vochtigheid: 40%
Barometer: 1017 hPa
Zicht: meer dan 10 km
Bewolking: Helder ft
EBBR 211020Z 10006KT 070V140 CAVOK 19/05 Q1017 NOSIG
EBAW - Antwerp/Deurne, Belgium
Afstand tot: ONO 94 km
Gewijzigd: 21-09-2019 12:20
Helder  
Helder  
   Wind: OZO 18.5 km/h
Wind: OZO 18.5 km/h
Temperatuur: 20°C
Dauwpunt: 4°C
Vochtigheid: 35%
Barometer: 1017 hPa
Zicht: meer dan 10 km
Bewolking: Helder ft
EBAW 211020Z 11010KT 090V160 CAVOK 20/04 Q1017 NOSIG
EHWO - Woensdrecht Rnla, Netherlands
Afstand tot: NO 98 km
Gewijzigd: 21-09-2019 12:25
Helder  
Helder  
   Wind: OZO 14.8 km/h
Wind: OZO 14.8 km/h
Temperatuur: 20°C
Dauwpunt: 4°C
Vochtigheid: 35%
Barometer: 1017 hPa
Bewolking: Clear
Zicht: meer dan 10 km
Bewolking: Helder ft
EHWO 211025Z AUTO 12008KT 070V160 9999 NCD 20/04 Q1017 BLU
EBCI - Charleroi/Gossel, Belgium
Afstand tot: OZO 102 km
Gewijzigd: 21-09-2019 12:20
Helder  
Helder  
   Wind: ZO 14.8 km/h
Wind: ZO 14.8 km/h
Temperatuur: 21°C
Dauwpunt: 5°C
Vochtigheid: 35%
Barometer: 1017 hPa
Zicht: meer dan 10 km
Bewolking: Helder ft
EBCI 211020Z 14008KT CAVOK 21/05 Q1017 NOSIG

Script ontwikkeld door  Saratoga-weather.org Aangepast voor de template door  Weerstation Leuven